weather station
Area: 7197 km2
The highest point: Čupec (819 m.s.l.)
Total stations: 37
Stations online: 34
Stations offline: 3
Current weather
15°C

Meteorological map - weather stations in Jihomoravský

. The meteorological maps show weather information from WARIO weather stations

Weather stations Jihomoravský

 UpdatesNameStatusTemperatureHumidityWind speedWind direction
15.9.2019 20:57Adamov16.4 °C67.3 %4.2 m/s SE
15.9.2019 20:57Archlebov15.5 °C75.0 %0.0 m/s NW
15.9.2019 20:57Boskovice15.0 °C74.1 %0.8 m/s N
15.9.2019 20:57Brno - Líšeň16.4 °C93.0 %1.3 m/s NE
15.9.2019 20:57Brno - Vinohrady17.0 °C68.1 %1.4 m/s SE
15.9.2019 20:57Brno - Komín13.5 °C88.2 %0.7 m/s NE
14.9.2019 12:15Býkovice21.1 °C38.5 %2.4 m/s S
15.9.2019 20:56Bítov14.3 °C92.3 %0.0 m/s N
15.9.2019 20:57Dobšice17.0 °C73.7 %0.7 m/s S
15.9.2019 20:56Drnholec17.0 °C74.2 %0.0 m/s SE
15.9.2019 20:57Lelekovice12.7 °C94.2 %1.3 m/s W
15.9.2019 20:56Holubice14.7 °C77.3 %1.0 m/s SW
15.9.2019 20:57Brno - Maloměřice15.7 °C79.6 %0.0 m/s NE
15.9.2019 20:57Moravany10.3 °C85.8 %0.0 m/s S
15.9.2019 20:56Brno - Štýřice17.1 °C83.1 %0.7 m/s W
12.9.2019 17:46Pasohlávky °C %2.7 m/s NE
15.9.2019 20:57Višňové14.4 °C87.9 %0.0 m/s W
15.9.2019 20:57Dolní Dubňany13.1 °C78.7 %1.2 m/s SW
15.9.2019 20:57Bzenec14.3 °C86.0 %0.0 m/s E
15.9.2019 20:56Svatobořice13.5 °C85.7 %0.0 m/s E
15.9.2019 20:56Moravské Bránice14.9 °C77.5 %0.0 m/s E
15.9.2019 20:57Pohořelice14.5 °C91.2 %0.0 m/s SW
15.9.2019 20:39Předklášteří12.2 °C93.8 %1.9 m/s NE
15.9.2019 20:57Brno - Přízřenice16.4 °C72.4 %0.0 m/s NW
15.9.2019 20:57Rousínov15.0 °C78.4 %0.0 m/s SE
15.9.2019 20:56Senorady13.1 °C90.2 %0.0 m/s W
15.9.2019 20:57Skalice u Znojma15.7 °C84.4 %0.0 m/s SE
15.9.2019 20:57Šlapanice14.2 °C81.8 %0.0 m/s N
15.9.2019 20:57Brno - Trnitá17.4 °C100.0 %0.0 m/s W
15.9.2019 20:57Kuřim12.8 °C92.2 %0.0 m/s E
15.9.2019 20:56Strážnice14.7 °C89.2 %0.0 m/s NE
15.9.2019 20:57Strážnice GUMEX15.3 °C84.8 %1.5 m/s S
15.9.2019 20:57Valtice16.6 °C73.0 %0.0 m/s W
15.9.2019 20:57Velatice12.5 °C93.9 %0.6 m/s W
15.9.2019 20:57Veselí nad Moravou14.3 °C78.8 %0.0 m/s NW
15.9.2019 20:57Rájec-Jestřebí14.2 °C83.3 %0.9 m/s SE
15.9.2019 20:57Brno - Královo Pole15.8 °C76.4 %0.0 m/s W
Email notifications
Enter your email address to subscribe to notifications about news at warioweather.com. Your email address will not be used for any purpose other than sending these emails and will not be provided to any third party. The subscription can be ended at any time.
All data are only indicative. The portal administrator has no responsibility for potentially incorrect data and related consequences. Publishing or further sharing of content from www.warioweather.com is only allowed with written consent from WANET s.r.o.